Time,TemperatureF,DewpointF,PressureIn,WindDirection,WindDirectionDegrees,WindSpeedMPH,WindSpeedGustMPH,Humidity,HourlyPrecipIn,Conditions,Clouds,dailyrainin,SoftwareType,DateUTC
2013-01-15 00:02:00,41.5,37.6,30.34,West,275,2.0,3.0,86,0.00,,,0.00,meteohub,2013-01-15 08:02:00,
2013-01-15 00:07:00,41.7,38.1,30.34,West,275,0.0,3.0,87,0.00,,,0.00,meteohub,2013-01-15 08:07:00,
2013-01-15 00:12:00,41.7,37.8,30.35,West,275,1.0,3.0,86,0.00,,,0.00,meteohub,2013-01-15 08:12:00,
2013-01-15 00:17:00,41.7,38.1,30.35,West,275,0.0,3.0,87,0.00,,,0.00,meteohub,2013-01-15 08:17:00,
2013-01-15 00:22:00,42.1,38.5,30.35,West,275,0.0,2.0,87,0.00,,,0.00,meteohub,2013-01-15 08:22:00,
2013-01-15 00:27:00,42.1,38.1,30.35,West,275,1.0,2.0,86,0.00,,,0.00,meteohub,2013-01-15 08:27:00,
2013-01-15 00:32:00,41.7,37.2,30.35,NNE,26,4.0,4.0,84,0.00,,,0.00,meteohub,2013-01-15 08:32:00,
2013-01-15 00:37:00,40.8,36.3,30.35,NE,39,4.0,6.0,84,0.00,,,0.00,meteohub,2013-01-15 08:37:00,
2013-01-15 00:42:00,40.5,36.3,30.35,NE,42,4.0,6.0,85,0.00,,,0.00,meteohub,2013-01-15 08:42:00,
2013-01-15 00:47:00,40.1,36.0,30.35,NE,43,3.0,6.0,85,0.00,,,0.00,meteohub,2013-01-15 08:47:00,
2013-01-15 00:52:00,39.9,36.1,30.35,NE,43,2.0,5.0,86,0.00,,,0.00,meteohub,2013-01-15 08:52:00,
2013-01-15 00:57:00,40.1,36.3,30.35,NE,43,0.0,5.0,86,0.00,,,0.00,meteohub,2013-01-15 08:57:00,
2013-01-15 01:02:00,39.6,35.1,30.35,NE,43,2.0,4.0,84,0.00,,,0.00,meteohub,2013-01-15 09:02:00,
2013-01-15 01:07:00,38.7,34.5,30.35,NE,43,0.0,3.0,85,0.00,,,0.00,meteohub,2013-01-15 09:07:00,
2013-01-15 01:12:00,38.1,34.5,30.35,NE,43,0.0,3.0,87,0.00,,,0.00,meteohub,2013-01-15 09:12:00,
2013-01-15 01:17:00,38.3,35.1,30.35,NE,43,0.0,3.0,88,0.00,,,0.00,meteohub,2013-01-15 09:17:00,
2013-01-15 01:22:00,38.7,35.8,30.35,NE,43,0.0,2.0,89,0.00,,,0.00,meteohub,2013-01-15 09:22:00,
2013-01-15 01:27:00,38.8,36.1,30.35,NE,43,0.0,2.0,90,0.00,,,0.00,meteohub,2013-01-15 09:27:00,
2013-01-15 01:32:00,39.2,36.5,30.35,NE,43,0.0,2.0,90,0.00,,,0.00,meteohub,2013-01-15 09:32:00,
2013-01-15 01:37:00,39.0,36.1,30.35,NE,43,0.0,2.0,89,0.00,,,0.00,meteohub,2013-01-15 09:37:00,
2013-01-15 01:42:00,38.8,36.0,30.35,NE,43,0.0,2.0,89,0.00,,,0.00,meteohub,2013-01-15 09:42:00,
2013-01-15 01:47:00,38.8,36.1,30.35,NE,43,0.0,0.0,90,0.00,,,0.00,meteohub,2013-01-15 09:47:00,
2013-01-15 01:52:00,39.0,36.3,30.35,NE,43,0.0,0.0,90,0.00,,,0.00,meteohub,2013-01-15 09:52:00,
2013-01-15 02:02:00,39.7,36.7,30.36,NE,43,3.0,4.0,89,0.00,,,0.00,meteohub,2013-01-15 10:02:00,
2013-01-15 02:07:00,39.0,35.4,30.36,NE,43,0.0,4.0,87,0.00,,,0.00,meteohub,2013-01-15 10:07:00,
2013-01-15 02:12:00,38.7,35.4,30.37,NE,43,0.0,4.0,88,0.00,,,0.00,meteohub,2013-01-15 10:12:00,
2013-01-15 02:17:00,38.5,35.2,30.37,NE,43,2.0,4.0,88,0.00,,,0.00,meteohub,2013-01-15 10:17:00,
2013-01-15 02:22:00,38.5,35.2,30.37,NE,43,0.0,4.0,88,0.00,,,0.00,meteohub,2013-01-15 10:22:00,
2013-01-15 02:27:00,38.1,34.5,30.37,NE,43,0.0,4.0,87,0.00,,,0.00,meteohub,2013-01-15 10:27:00,
2013-01-15 02:32:00,38.1,34.9,30.37,NE,43,4.0,4.0,88,0.00,,,0.00,meteohub,2013-01-15 10:32:00,
2013-01-15 02:37:00,38.7,35.4,30.37,NE,43,1.0,4.0,88,0.00,,,0.00,meteohub,2013-01-15 10:37:00,
2013-01-15 02:42:00,38.7,34.9,30.37,NE,43,5.0,5.0,86,0.00,,,0.00,meteohub,2013-01-15 10:42:00,
2013-01-15 02:47:00,37.6,33.4,30.37,ENE,60,5.0,8.0,85,0.00,,,0.00,meteohub,2013-01-15 10:47:00,
2013-01-15 02:52:00,37.0,33.3,30.37,ENE,60,0.0,8.0,86,0.00,,,0.00,meteohub,2013-01-15 10:52:00,
2013-01-15 02:57:00,36.7,32.9,30.37,ENE,60,5.0,8.0,86,0.00,,,0.00,meteohub,2013-01-15 10:57:00,
2013-01-15 03:02:00,36.5,33.1,30.37,ENE,61,5.0,7.0,87,0.00,,,0.00,meteohub,2013-01-15 11:02:00,
2013-01-15 03:07:00,36.3,32.9,30.37,ENE,61,3.0,7.0,87,0.00,,,0.00,meteohub,2013-01-15 11:07:00,
2013-01-15 03:12:00,35.8,32.0,30.37,ENE,61,4.0,7.0,86,0.00,,,0.00,meteohub,2013-01-15 11:12:00,
2013-01-15 03:17:00,35.2,31.8,30.37,ENE,61,0.0,7.0,87,0.00,,,0.00,meteohub,2013-01-15 11:17:00,
2013-01-15 03:22:00,34.9,31.6,30.37,ENE,61,4.0,5.0,88,0.00,,,0.00,meteohub,2013-01-15 11:22:00,
2013-01-15 03:27:00,35.1,32.4,30.37,ENE,61,4.0,5.0,90,0.00,,,0.00,meteohub,2013-01-15 11:27:00,
2013-01-15 03:32:00,35.2,32.4,30.37,ENE,61,0.0,5.0,89,0.00,,,0.00,meteohub,2013-01-15 11:32:00,
2013-01-15 03:37:00,35.1,31.8,30.37,ENE,61,1.0,5.0,88,0.00,,,0.00,meteohub,2013-01-15 11:37:00,
2013-01-15 03:42:00,35.1,32.4,30.37,ENE,61,2.0,5.0,90,0.00,,,0.00,meteohub,2013-01-15 11:42:00,
2013-01-15 03:47:00,36.0,33.8,30.37,ENE,61,4.0,4.0,92,0.00,,,0.00,meteohub,2013-01-15 11:47:00,
2013-01-15 03:52:00,37.0,34.2,30.37,ENE,61,5.0,5.0,89,0.00,,,0.00,meteohub,2013-01-15 11:52:00,
2013-01-15 03:57:00,36.9,33.4,30.37,ENE,61,5.0,7.0,87,0.00,,,0.00,meteohub,2013-01-15 11:57:00,
2013-01-15 04:02:00,36.5,33.1,30.37,ENE,61,2.0,7.0,87,0.00,,,0.00,meteohub,2013-01-15 12:02:00,
2013-01-15 04:07:00,36.3,33.1,30.37,ENE,61,2.0,7.0,88,0.00,,,0.00,meteohub,2013-01-15 12:07:00,
2013-01-15 04:17:00,36.0,32.7,30.37,ENE,61,5.0,7.0,88,0.00,,,0.00,meteohub,2013-01-15 12:17:00,
2013-01-15 04:22:00,35.1,31.8,30.37,ENE,63,5.0,7.0,88,0.00,,,0.00,meteohub,2013-01-15 12:22:00,
2013-01-15 04:27:00,34.3,31.5,30.37,ENE,74,7.0,8.0,89,0.00,,,0.00,meteohub,2013-01-15 12:27:00,
2013-01-15 04:32:00,34.5,32.2,30.37,ENE,74,7.0,9.0,91,0.00,,,0.00,meteohub,2013-01-15 12:32:00,
2013-01-15 04:37:00,35.1,32.4,30.37,ENE,74,5.0,9.0,90,0.00,,,0.00,meteohub,2013-01-15 12:37:00,
2013-01-15 04:42:00,35.1,32.2,30.37,ENE,74,0.0,8.0,89,0.00,,,0.00,meteohub,2013-01-15 12:42:00,
2013-01-15 04:47:00,34.9,32.0,30.37,ENE,74,0.0,8.0,89,0.00,,,0.00,meteohub,2013-01-15 12:47:00,
2013-01-15 04:52:00,34.5,31.6,30.37,ENE,73,4.0,7.0,89,0.00,,,0.00,meteohub,2013-01-15 12:52:00,
2013-01-15 04:57:00,34.2,31.3,30.37,ENE,73,3.0,5.0,89,0.00,,,0.00,meteohub,2013-01-15 12:57:00,
2013-01-15 05:02:00,33.6,30.9,30.37,ENE,74,3.0,7.0,90,0.00,,,0.00,meteohub,2013-01-15 13:02:00,
2013-01-15 05:07:00,33.6,30.9,30.37,ENE,74,0.0,7.0,90,0.00,,,0.00,meteohub,2013-01-15 13:07:00,
2013-01-15 05:12:00,33.4,30.7,30.37,ENE,73,2.0,4.0,90,0.00,,,0.00,meteohub,2013-01-15 13:12:00,
2013-01-15 05:17:00,34.0,31.6,30.37,ENE,74,0.0,5.0,91,0.00,,,0.00,meteohub,2013-01-15 13:17:00,
2013-01-15 05:22:00,34.2,31.8,30.37,ENE,74,2.0,5.0,91,0.00,,,0.00,meteohub,2013-01-15 13:22:00,
2013-01-15 05:27:00,34.0,31.3,30.37,ENE,74,0.0,5.0,90,0.00,,,0.00,meteohub,2013-01-15 13:27:00,
2013-01-15 05:32:00,33.8,31.1,30.37,ENE,74,1.0,4.0,90,0.00,,,0.00,meteohub,2013-01-15 13:32:00,
2013-01-15 05:37:00,33.8,31.5,30.37,ENE,74,0.0,2.0,91,0.00,,,0.00,meteohub,2013-01-15 13:37:00,
2013-01-15 05:42:00,34.0,31.6,30.37,ENE,74,0.0,2.0,91,0.00,,,0.00,meteohub,2013-01-15 13:42:00,
2013-01-15 05:47:00,34.2,31.5,30.37,ENE,74,0.0,2.0,90,0.00,,,0.00,meteohub,2013-01-15 13:47:00,
2013-01-15 05:52:00,34.0,31.3,30.37,ENE,74,0.0,1.0,90,0.00,,,0.00,meteohub,2013-01-15 13:52:00,
2013-01-15 05:57:00,33.8,31.1,30.37,ENE,73,0.0,1.0,90,0.00,,,0.00,meteohub,2013-01-15 13:57:00,
2013-01-15 06:02:00,34.0,31.6,30.37,ENE,74,0.0,1.0,91,0.00,,,0.00,meteohub,2013-01-15 14:02:00,
2013-01-15 06:07:00,34.2,31.8,30.37,ENE,73,0.0,2.0,91,0.00,,,0.00,meteohub,2013-01-15 14:07:00,
2013-01-15 06:12:00,34.3,32.0,30.38,ENE,73,2.0,3.0,91,0.00,,,0.00,meteohub,2013-01-15 14:12:00,
2013-01-15 06:17:00,34.5,31.8,30.38,ENE,74,2.0,3.0,90,0.00,,,0.00,meteohub,2013-01-15 14:17:00,
2013-01-15 06:22:00,34.7,32.0,30.38,ENE,74,0.0,4.0,90,0.00,,,0.00,meteohub,2013-01-15 14:22:00,
2013-01-15 06:27:00,34.5,31.6,30.38,ENE,74,0.0,4.0,89,0.00,,,0.00,meteohub,2013-01-15 14:27:00,
2013-01-15 06:32:00,34.3,31.5,30.38,ENE,74,0.0,3.0,89,0.00,,,0.00,meteohub,2013-01-15 14:32:00,
2013-01-15 06:37:00,34.0,31.1,30.38,ENE,74,0.0,2.0,89,0.00,,,0.00,meteohub,2013-01-15 14:37:00,
2013-01-15 06:42:00,33.8,30.9,30.39,ENE,74,0.0,1.0,89,0.00,,,0.00,meteohub,2013-01-15 14:42:00,
2013-01-15 06:47:00,33.6,30.9,30.39,ENE,74,0.0,1.0,90,0.00,,,0.00,meteohub,2013-01-15 14:47:00,
2013-01-15 06:52:00,33.8,31.1,30.39,ENE,74,0.0,0.0,90,0.00,,,0.00,meteohub,2013-01-15 14:52:00,
2013-01-15 06:57:00,33.6,30.9,30.39,ENE,74,0.0,0.0,90,0.00,,,0.00,meteohub,2013-01-15 14:57:00,
2013-01-15 07:02:00,33.4,30.6,30.39,ENE,73,0.0,0.0,89,0.00,,,0.00,meteohub,2013-01-15 15:02:00,
2013-01-15 07:07:00,33.3,30.4,30.39,ENE,74,0.0,0.0,89,0.00,,,0.00,meteohub,2013-01-15 15:07:00,
2013-01-15 07:12:00,33.3,30.6,30.40,ENE,74,0.0,0.0,90,0.00,,,0.00,meteohub,2013-01-15 15:12:00,
2013-01-15 07:17:00,33.1,30.4,30.40,ENE,73,1.0,1.0,90,0.00,,,0.00,meteohub,2013-01-15 15:17:00,
2013-01-15 07:22:00,33.1,30.4,30.40,ENE,74,0.0,2.0,90,0.00,,,0.00,meteohub,2013-01-15 15:22:00,
2013-01-15 07:27:00,33.1,30.4,30.40,ENE,74,0.0,3.0,90,0.00,,,0.00,meteohub,2013-01-15 15:27:00,
2013-01-15 07:32:00,33.1,30.4,30.40,ENE,74,1.0,3.0,90,0.00,,,0.00,meteohub,2013-01-15 15:32:00,
2013-01-15 07:37:00,33.3,30.6,30.40,ENE,73,0.0,3.0,90,0.00,,,0.00,meteohub,2013-01-15 15:37:00,
2013-01-15 07:42:00,33.4,30.7,30.41,ENE,74,1.0,3.0,90,0.00,,,0.00,meteohub,2013-01-15 15:42:00,
2013-01-15 07:47:00,33.6,30.9,30.41,ENE,73,0.0,3.0,90,0.00,,,0.00,meteohub,2013-01-15 15:47:00,
2013-01-15 07:52:00,33.8,31.1,30.41,ENE,74,1.0,2.0,90,0.00,,,0.00,meteohub,2013-01-15 15:52:00,
2013-01-15 07:57:00,34.0,31.3,30.42,ENE,74,0.0,2.0,90,0.00,,,0.00,meteohub,2013-01-15 15:57:00,
2013-01-15 08:07:00,34.5,31.8,30.42,ENE,74,3.0,3.0,90,0.00,,,0.00,meteohub,2013-01-15 16:07:00,
2013-01-15 08:12:00,34.9,32.0,30.42,ENE,74,0.0,4.0,89,0.00,,,0.00,meteohub,2013-01-15 16:12:00,
2013-01-15 08:17:00,35.1,31.8,30.42,ENE,73,0.0,4.0,88,0.00,,,0.00,meteohub,2013-01-15 16:17:00,
2013-01-15 08:22:00,34.9,31.5,30.42,ENE,73,2.0,4.0,87,0.00,,,0.00,meteohub,2013-01-15 16:22:00,
2013-01-15 08:27:00,34.7,31.3,30.42,ENE,74,1.0,4.0,87,0.00,,,0.00,meteohub,2013-01-15 16:27:00,
2013-01-15 08:32:00,34.5,31.3,30.42,ENE,74,0.0,3.0,88,0.00,,,0.00,meteohub,2013-01-15 16:32:00,
2013-01-15 08:37:00,34.5,31.3,30.42,ENE,74,0.0,3.0,88,0.00,,,0.00,meteohub,2013-01-15 16:37:00,
2013-01-15 08:42:00,34.5,31.3,30.43,ENE,73,0.0,3.0,88,0.00,,,0.00,meteohub,2013-01-15 16:42:00,
2013-01-15 08:47:00,34.7,31.8,30.43,ENE,74,0.0,2.0,89,0.00,,,0.00,meteohub,2013-01-15 16:47:00,
2013-01-15 08:52:00,34.5,31.3,30.43,ENE,74,0.0,2.0,88,0.00,,,0.00,meteohub,2013-01-15 16:52:00,
2013-01-15 08:57:00,34.7,31.8,30.43,ENE,74,0.0,2.0,89,0.00,,,0.00,meteohub,2013-01-15 16:57:00,
2013-01-15 09:07:00,35.4,32.5,30.43,ENE,74,0.0,1.0,89,0.00,,,0.00,meteohub,2013-01-15 17:07:00,
2013-01-15 09:12:00,35.2,32.4,30.43,ENE,74,0.0,0.0,89,0.00,,,0.00,meteohub,2013-01-15 17:12:00,
2013-01-15 09:17:00,36.0,33.3,30.43,ENE,74,1.0,1.0,90,0.00,,,0.00,meteohub,2013-01-15 17:17:00,
2013-01-15 09:22:00,36.3,33.1,30.43,ENE,73,7.0,7.0,88,0.00,,,0.00,meteohub,2013-01-15 17:22:00,
2013-01-15 09:27:00,36.7,33.3,30.43,ENE,70,7.0,7.0,87,0.00,,,0.00,meteohub,2013-01-15 17:27:00,
2013-01-15 09:32:00,36.3,32.5,30.43,ENE,67,5.0,8.0,86,0.00,,,0.00,meteohub,2013-01-15 17:32:00,
2013-01-15 09:37:00,36.5,33.1,30.43,ENE,65,5.0,8.0,87,0.00,,,0.00,meteohub,2013-01-15 17:37:00,
2013-01-15 09:42:00,36.9,33.4,30.43,ENE,65,3.0,8.0,87,0.00,,,0.00,meteohub,2013-01-15 17:42:00,
2013-01-15 09:47:00,37.2,33.4,30.43,ENE,65,7.0,8.0,86,0.00,,,0.00,meteohub,2013-01-15 17:47:00,
2013-01-15 09:52:00,37.0,32.9,30.43,ENE,65,5.0,7.0,85,0.00,,,0.00,meteohub,2013-01-15 17:52:00,
2013-01-15 09:57:00,37.2,33.1,30.43,ENE,64,5.0,8.0,85,0.00,,,0.00,meteohub,2013-01-15 17:57:00,
2013-01-15 10:02:00,37.2,33.1,30.43,ENE,73,5.0,8.0,85,0.00,,,0.00,meteohub,2013-01-15 18:02:00,
2013-01-15 10:07:00,37.6,33.8,30.43,ENE,78,8.0,9.0,86,0.00,,,0.00,meteohub,2013-01-15 18:07:00,
2013-01-15 10:12:00,37.9,33.8,30.43,ENE,76,3.0,9.0,85,0.00,,,0.00,meteohub,2013-01-15 18:12:00,
2013-01-15 10:17:00,38.5,34.2,30.43,ENE,76,5.0,9.0,84,0.00,,,0.00,meteohub,2013-01-15 18:17:00,
2013-01-15 10:22:00,38.7,34.2,30.43,ENE,76,5.0,8.0,84,0.00,,,0.00,meteohub,2013-01-15 18:22:00,
2013-01-15 10:27:00,39.0,34.5,30.43,ENE,76,4.0,8.0,84,0.00,,,0.00,meteohub,2013-01-15 18:27:00,
2013-01-15 10:32:00,39.4,34.7,30.43,ENE,76,4.0,7.0,83,0.00,,,0.00,meteohub,2013-01-15 18:32:00,
2013-01-15 10:37:00,39.7,35.2,30.43,ENE,78,4.0,7.0,84,0.00,,,0.00,meteohub,2013-01-15 18:37:00,
2013-01-15 10:42:00,40.3,35.6,30.43,ENE,75,4.0,7.0,83,0.00,,,0.00,meteohub,2013-01-15 18:42:00,
2013-01-15 10:47:00,40.6,36.0,30.43,East,80,6.0,8.0,83,0.00,,,0.00,meteohub,2013-01-15 18:47:00,
2013-01-15 10:52:00,41.2,35.8,30.43,East,80,5.0,8.0,81,0.00,,,0.00,meteohub,2013-01-15 18:52:00,
2013-01-15 10:57:00,41.2,35.2,30.43,ENE,74,5.0,9.0,79,0.00,,,0.00,meteohub,2013-01-15 18:57:00,
2013-01-15 11:02:00,41.5,35.2,30.43,ENE,76,7.0,9.0,78,0.00,,,0.00,meteohub,2013-01-15 19:02:00,
2013-01-15 11:07:00,41.7,35.1,30.43,ENE,73,3.0,9.0,77,0.00,,,0.00,meteohub,2013-01-15 19:07:00,
2013-01-15 11:12:00,41.9,34.9,30.42,ENE,77,7.0,8.0,76,0.00,,,0.00,meteohub,2013-01-15 19:12:00,
2013-01-15 11:17:00,42.3,34.9,30.42,ENE,77,4.0,9.0,75,0.00,,,0.00,meteohub,2013-01-15 19:17:00,
2013-01-15 11:22:00,42.4,34.7,30.42,ENE,72,7.0,9.0,74,0.00,,,0.00,meteohub,2013-01-15 19:22:00,
2013-01-15 11:27:00,42.8,34.7,30.42,ENE,76,3.0,9.0,73,0.00,,,0.00,meteohub,2013-01-15 19:27:00,
2013-01-15 11:32:00,43.3,34.5,30.42,ENE,76,3.0,8.0,71,0.00,,,0.00,meteohub,2013-01-15 19:32:00,
2013-01-15 11:37:00,43.5,34.3,30.42,ENE,75,3.0,8.0,70,0.00,,,0.00,meteohub,2013-01-15 19:37:00,
2013-01-15 11:42:00,44.2,34.3,30.42,ENE,76,2.0,8.0,68,0.00,,,0.00,meteohub,2013-01-15 19:42:00,
2013-01-15 11:47:00,44.2,34.0,30.42,ENE,78,7.0,8.0,67,0.00,,,0.00,meteohub,2013-01-15 19:47:00,
2013-01-15 11:52:00,44.8,34.5,30.42,East,82,3.0,7.0,67,0.00,,,0.00,meteohub,2013-01-15 19:52:00,
2013-01-15 11:57:00,45.1,33.6,30.40,East,81,3.0,7.0,64,0.00,,,0.00,meteohub,2013-01-15 19:57:00,
2013-01-15 12:02:00,45.3,34.3,30.40,East,86,2.0,8.0,65,0.00,,,0.00,meteohub,2013-01-15 20:02:00,
2013-01-15 12:07:00,45.5,34.3,30.40,ENE,77,4.0,8.0,65,0.00,,,0.00,meteohub,2013-01-15 20:07:00,
2013-01-15 12:12:00,45.3,33.4,30.40,ENE,77,7.0,8.0,63,0.00,,,0.00,meteohub,2013-01-15 20:12:00,
2013-01-15 12:17:00,45.9,35.1,30.40,ENE,77,5.0,8.0,66,0.00,,,0.00,meteohub,2013-01-15 20:17:00,
2013-01-15 12:22:00,45.9,33.6,30.40,East,81,5.0,8.0,62,0.00,,,0.00,meteohub,2013-01-15 20:22:00,
2013-01-15 12:27:00,46.0,34.2,30.40,East,96,6.0,8.0,63,0.00,,,0.00,meteohub,2013-01-15 20:27:00,
2013-01-15 12:32:00,46.2,34.0,30.40,East,90,6.0,8.0,62,0.00,,,0.00,meteohub,2013-01-15 20:32:00,
2013-01-15 12:37:00,46.0,34.2,30.40,East,81,3.0,8.0,63,0.00,,,0.00,meteohub,2013-01-15 20:37:00,
2013-01-15 12:42:00,46.4,33.6,30.39,East,82,5.0,9.0,61,0.00,,,0.00,meteohub,2013-01-15 20:42:00,
2013-01-15 12:47:00,46.2,33.4,30.39,ENE,78,3.0,9.0,61,0.00,,,0.00,meteohub,2013-01-15 20:47:00,
2013-01-15 12:52:00,46.6,34.3,30.39,East,88,8.0,9.0,62,0.00,,,0.00,meteohub,2013-01-15 20:52:00,
2013-01-15 12:57:00,46.6,33.4,30.39,East,86,6.0,8.0,60,0.00,,,0.00,meteohub,2013-01-15 20:57:00,
2013-01-15 13:02:00,46.9,33.8,30.39,East,94,6.0,9.0,60,0.00,,,0.00,meteohub,2013-01-15 21:02:00,
2013-01-15 13:07:00,47.3,33.6,30.39,ENE,75,5.0,9.0,59,0.00,,,0.00,meteohub,2013-01-15 21:07:00,
2013-01-15 13:12:00,47.1,34.0,30.38,East,92,5.0,9.0,60,0.00,,,0.00,meteohub,2013-01-15 21:12:00,
2013-01-15 13:17:00,47.7,34.9,30.38,East,80,6.0,8.0,61,0.00,,,0.00,meteohub,2013-01-15 21:17:00,
2013-01-15 13:22:00,47.5,33.8,30.38,ENE,77,3.0,8.0,59,0.00,,,0.00,meteohub,2013-01-15 21:22:00,
2013-01-15 13:27:00,47.7,34.0,30.38,ENE,67,5.0,8.0,59,0.00,,,0.00,meteohub,2013-01-15 21:27:00,
2013-01-15 13:32:00,48.0,34.9,30.38,East,81,5.0,9.0,60,0.00,,,0.00,meteohub,2013-01-15 21:32:00,
2013-01-15 13:37:00,48.0,34.9,30.38,ENE,78,5.0,9.0,60,0.00,,,0.00,meteohub,2013-01-15 21:37:00,
2013-01-15 13:42:00,48.4,35.1,30.38,ENE,73,7.0,9.0,60,0.00,,,0.00,meteohub,2013-01-15 21:42:00,
2013-01-15 13:47:00,48.6,34.9,30.38,East,80,3.0,8.0,59,0.00,,,0.00,meteohub,2013-01-15 21:47:00,
2013-01-15 13:52:00,48.6,34.9,30.38,East,85,2.0,8.0,59,0.00,,,0.00,meteohub,2013-01-15 21:52:00,
2013-01-15 13:57:00,48.6,33.6,30.38,East,99,5.0,8.0,56,0.00,,,0.00,meteohub,2013-01-15 21:57:00,
2013-01-15 14:02:00,48.9,35.2,30.38,ESE,104,2.0,8.0,59,0.00,,,0.00,meteohub,2013-01-15 22:02:00,
2013-01-15 14:07:00,48.9,35.6,30.38,East,86,7.0,9.0,60,0.00,,,0.00,meteohub,2013-01-15 22:07:00,
2013-01-15 14:12:00,49.3,36.0,30.37,East,86,6.0,9.0,60,0.00,,,0.00,meteohub,2013-01-15 22:12:00,
2013-01-15 14:17:00,49.5,36.1,30.37,East,90,7.0,9.0,60,0.00,,,0.00,meteohub,2013-01-15 22:17:00,
2013-01-15 14:22:00,49.5,34.3,30.37,East,101,6.0,8.0,56,0.00,,,0.00,meteohub,2013-01-15 22:22:00,
2013-01-15 14:27:00,49.5,35.8,30.37,East,101,6.0,8.0,59,0.00,,,0.00,meteohub,2013-01-15 22:27:00,
2013-01-15 14:32:00,49.3,34.2,30.37,East,100,7.0,8.0,56,0.00,,,0.00,meteohub,2013-01-15 22:32:00,
2013-01-15 14:37:00,49.1,33.6,30.37,East,93,6.0,8.0,55,0.00,,,0.00,meteohub,2013-01-15 22:37:00,
2013-01-15 14:42:00,49.3,34.7,30.37,East,92,5.0,8.0,57,0.00,,,0.00,meteohub,2013-01-15 22:42:00,
2013-01-15 14:47:00,49.6,34.5,30.37,ESE,121,5.0,9.0,56,0.00,,,0.00,meteohub,2013-01-15 22:47:00,
2013-01-15 14:52:00,49.5,34.3,30.37,East,92,5.0,9.0,56,0.00,,,0.00,meteohub,2013-01-15 22:52:00,
2013-01-15 14:57:00,49.6,34.5,30.37,East,99,6.0,9.0,56,0.00,,,0.00,meteohub,2013-01-15 22:57:00,
2013-01-15 15:02:00,49.5,34.9,30.37,East,98,3.0,9.0,57,0.00,,,0.00,meteohub,2013-01-15 23:02:00,
2013-01-15 15:07:00,49.5,33.4,30.37,East,101,5.0,9.0,54,0.00,,,0.00,meteohub,2013-01-15 23:07:00,
2013-01-15 15:12:00,49.3,34.2,30.38,East,100,3.0,9.0,56,0.00,,,0.00,meteohub,2013-01-15 23:12:00,
2013-01-15 15:17:00,49.3,34.7,30.38,East,97,3.0,9.0,57,0.00,,,0.00,meteohub,2013-01-15 23:17:00,
2013-01-15 15:22:00,49.3,35.1,30.38,East,99,5.0,9.0,58,0.00,,,0.00,meteohub,2013-01-15 23:22:00,
2013-01-15 15:27:00,49.1,34.9,30.38,ESE,114,4.0,9.0,58,0.00,,,0.00,meteohub,2013-01-15 23:27:00,
2013-01-15 15:32:00,48.9,35.6,30.38,ESE,117,5.0,9.0,60,0.00,,,0.00,meteohub,2013-01-15 23:32:00,
2013-01-15 15:37:00,48.9,35.6,30.38,ESE,120,7.0,9.0,60,0.00,,,0.00,meteohub,2013-01-15 23:37:00,
2013-01-15 15:42:00,48.7,35.4,30.38,ESE,122,4.0,8.0,60,0.00,,,0.00,meteohub,2013-01-15 23:42:00,
2013-01-15 15:47:00,48.7,36.0,30.38,ESE,119,5.0,8.0,61,0.00,,,0.00,meteohub,2013-01-15 23:47:00,
2013-01-15 15:52:00,48.4,35.6,30.38,ESE,113,5.0,8.0,61,0.00,,,0.00,meteohub,2013-01-15 23:52:00,
2013-01-15 15:57:00,48.0,35.6,30.38,ESE,113,4.0,7.0,62,0.00,,,0.00,meteohub,2013-01-15 23:57:00,
2013-01-15 16:02:00,47.8,35.8,30.38,ESE,110,3.0,7.0,63,0.00,,,0.00,meteohub,2013-01-16 00:02:00,
2013-01-15 16:07:00,47.7,35.2,30.38,ESE,107,4.0,7.0,62,0.00,,,0.00,meteohub,2013-01-16 00:07:00,
2013-01-15 16:12:00,47.5,35.6,30.38,ESE,106,5.0,5.0,63,0.00,,,0.00,meteohub,2013-01-16 00:12:00,
2013-01-15 16:17:00,47.1,35.2,30.38,ESE,105,4.0,7.0,63,0.00,,,0.00,meteohub,2013-01-16 00:17:00,
2013-01-15 16:22:00,46.9,35.4,30.38,ESE,105,5.0,7.0,64,0.00,,,0.00,meteohub,2013-01-16 00:22:00,
2013-01-15 16:27:00,46.8,35.2,30.38,ESE,104,5.0,7.0,64,0.00,,,0.00,meteohub,2013-01-16 00:27:00,
2013-01-15 16:32:00,46.6,35.4,30.38,ESE,104,4.0,7.0,65,0.00,,,0.00,meteohub,2013-01-16 00:32:00,
2013-01-15 16:37:00,46.4,34.9,30.38,ESE,104,4.0,7.0,64,0.00,,,0.00,meteohub,2013-01-16 00:37:00,
2013-01-15 16:47:00,46.0,34.5,30.38,East,101,7.0,7.0,64,0.00,,,0.00,meteohub,2013-01-16 00:47:00,
2013-01-15 16:52:00,45.3,34.3,30.38,ESE,103,5.0,7.0,65,0.00,,,0.00,meteohub,2013-01-16 00:52:00,
2013-01-15 17:02:00,44.2,34.0,30.39,ESE,105,7.0,8.0,67,0.00,,,0.00,meteohub,2013-01-16 01:02:00,
2013-01-15 17:12:00,43.9,33.6,30.38,ESE,105,5.0,8.0,67,0.00,,,0.00,meteohub,2013-01-16 01:12:00,
2013-01-15 17:17:00,43.9,33.6,30.38,ESE,105,5.0,7.0,67,0.00,,,0.00,meteohub,2013-01-16 01:17:00,
2013-01-15 17:22:00,43.5,33.6,30.38,ESE,105,7.0,7.0,68,0.00,,,0.00,meteohub,2013-01-16 01:22:00,
2013-01-15 17:27:00,43.3,33.4,30.38,ESE,105,7.0,7.0,68,0.00,,,0.00,meteohub,2013-01-16 01:27:00,
2013-01-15 17:32:00,43.0,33.4,30.38,ESE,105,7.0,8.0,69,0.00,,,0.00,meteohub,2013-01-16 01:32:00,
2013-01-15 17:37:00,42.8,33.3,30.38,ESE,106,5.0,8.0,69,0.00,,,0.00,meteohub,2013-01-16 01:37:00,
2013-01-15 17:42:00,43.2,33.3,30.38,ESE,106,5.0,8.0,68,0.00,,,0.00,meteohub,2013-01-16 01:42:00,
2013-01-15 17:47:00,42.6,33.1,30.38,ESE,106,7.0,7.0,69,0.00,,,0.00,meteohub,2013-01-16 01:47:00,
2013-01-15 17:52:00,42.4,33.4,30.38,ESE,113,7.0,7.0,70,0.00,,,0.00,meteohub,2013-01-16 01:52:00,
2013-01-15 17:57:00,42.6,33.1,30.39,ESE,115,7.0,8.0,69,0.00,,,0.00,meteohub,2013-01-16 01:57:00,
2013-01-15 18:02:00,42.4,33.4,30.39,ESE,117,7.0,8.0,70,0.00,,,0.00,meteohub,2013-01-16 02:02:00,
2013-01-15 18:07:00,42.3,33.3,30.39,ESE,117,4.0,8.0,70,0.00,,,0.00,meteohub,2013-01-16 02:07:00,
2013-01-15 18:12:00,41.9,33.3,30.39,ESE,117,7.0,8.0,71,0.00,,,0.00,meteohub,2013-01-16 02:12:00,
2013-01-15 18:17:00,41.7,33.1,30.39,ESE,117,7.0,8.0,71,0.00,,,0.00,meteohub,2013-01-16 02:17:00,
2013-01-15 18:22:00,41.5,32.9,30.39,ESE,117,5.0,7.0,71,0.00,,,0.00,meteohub,2013-01-16 02:22:00,
2013-01-15 18:27:00,41.7,33.1,30.39,ESE,117,5.0,7.0,71,0.00,,,0.00,meteohub,2013-01-16 02:27:00,
2013-01-15 18:32:00,41.9,33.3,30.39,ESE,117,5.0,7.0,71,0.00,,,0.00,meteohub,2013-01-16 02:32:00,
2013-01-15 18:37:00,41.9,32.9,30.39,ESE,117,4.0,7.0,70,0.00,,,0.00,meteohub,2013-01-16 02:37:00,
2013-01-15 18:42:00,41.7,32.7,30.39,ESE,117,5.0,7.0,70,0.00,,,0.00,meteohub,2013-01-16 02:42:00,
2013-01-15 18:47:00,41.9,32.9,30.39,ESE,117,5.0,5.0,70,0.00,,,0.00,meteohub,2013-01-16 02:47:00,
2013-01-15 18:52:00,41.9,32.9,30.39,ESE,117,5.0,7.0,70,0.00,,,0.00,meteohub,2013-01-16 02:52:00,
2013-01-15 18:57:00,41.9,32.9,30.39,ESE,117,5.0,7.0,70,0.00,,,0.00,meteohub,2013-01-16 02:57:00,
2013-01-15 19:02:00,42.1,32.7,30.39,ESE,117,7.0,7.0,69,0.00,,,0.00,meteohub,2013-01-16 03:02:00,
2013-01-15 19:07:00,42.1,32.7,30.39,ESE,117,7.0,7.0,69,0.00,,,0.00,meteohub,2013-01-16 03:07:00,
2013-01-15 19:12:00,41.7,32.4,30.39,ESE,117,7.0,8.0,69,0.00,,,0.00,meteohub,2013-01-16 03:12:00,
2013-01-15 19:17:00,41.7,32.4,30.39,ESE,117,7.0,8.0,69,0.00,,,0.00,meteohub,2013-01-16 03:17:00,
2013-01-15 19:22:00,41.5,32.5,30.39,ESE,118,7.0,8.0,70,0.00,,,0.00,meteohub,2013-01-16 03:22:00,
2013-01-15 19:27:00,41.5,32.2,30.39,ESE,121,7.0,8.0,69,0.00,,,0.00,meteohub,2013-01-16 03:27:00,
2013-01-15 19:32:00,41.5,32.2,30.39,ESE,121,5.0,8.0,69,0.00,,,0.00,meteohub,2013-01-16 03:32:00,
2013-01-15 19:37:00,41.5,32.2,30.39,ESE,121,3.0,8.0,69,0.00,,,0.00,meteohub,2013-01-16 03:37:00,
2013-01-15 19:47:00,41.9,31.8,30.39,ESE,121,8.0,8.0,67,0.00,,,0.00,meteohub,2013-01-16 03:47:00,
2013-01-15 19:52:00,41.9,31.8,30.39,ESE,122,7.0,8.0,67,0.00,,,0.00,meteohub,2013-01-16 03:52:00,
2013-01-15 19:57:00,41.5,31.5,30.38,ESE,122,7.0,8.0,67,0.00,,,0.00,meteohub,2013-01-16 03:57:00,
2013-01-15 20:02:00,41.5,31.8,30.38,ESE,122,4.0,8.0,68,0.00,,,0.00,meteohub,2013-01-16 04:02:00,
2013-01-15 20:07:00,41.4,31.6,30.38,ESE,122,5.0,8.0,68,0.00,,,0.00,meteohub,2013-01-16 04:07:00,
2013-01-15 20:12:00,40.8,31.5,30.38,ESE,122,4.0,7.0,69,0.00,,,0.00,meteohub,2013-01-16 04:12:00,
2013-01-15 20:17:00,41.2,31.8,30.38,ESE,122,4.0,7.0,69,0.00,,,0.00,meteohub,2013-01-16 04:17:00,
2013-01-15 20:22:00,41.4,31.6,30.38,ESE,122,5.0,7.0,68,0.00,,,0.00,meteohub,2013-01-16 04:22:00,
2013-01-15 20:27:00,41.4,31.6,30.38,ESE,122,5.0,7.0,68,0.00,,,0.00,meteohub,2013-01-16 04:27:00,
2013-01-15 20:32:00,41.2,31.5,30.38,ESE,122,3.0,7.0,68,0.00,,,0.00,meteohub,2013-01-16 04:32:00,
2013-01-15 20:37:00,41.2,31.5,30.38,ESE,122,4.0,7.0,68,0.00,,,0.00,meteohub,2013-01-16 04:37:00,
2013-01-15 20:42:00,41.2,31.5,30.38,ESE,122,4.0,7.0,68,0.00,,,0.00,meteohub,2013-01-16 04:42:00,
2013-01-15 20:47:00,41.4,31.3,30.38,ESE,122,3.0,5.0,67,0.00,,,0.00,meteohub,2013-01-16 04:47:00,
2013-01-15 20:52:00,41.4,31.3,30.38,ESE,122,4.0,5.0,67,0.00,,,0.00,meteohub,2013-01-16 04:52:00,
2013-01-15 20:57:00,41.4,31.3,30.38,ESE,122,4.0,4.0,67,0.00,,,0.00,meteohub,2013-01-16 04:57:00,
2013-01-15 21:02:00,41.5,31.1,30.38,ESE,122,3.0,4.0,66,0.00,,,0.00,meteohub,2013-01-16 05:02:00,
2013-01-15 21:07:00,41.5,31.1,30.38,ESE,122,4.0,4.0,66,0.00,,,0.00,meteohub,2013-01-16 05:07:00,
2013-01-15 21:17:00,41.9,31.5,30.37,ESE,122,2.0,4.0,66,0.00,,,0.00,meteohub,2013-01-16 05:17:00,
2013-01-15 21:22:00,42.3,30.9,30.37,ESE,122,3.0,4.0,64,0.00,,,0.00,meteohub,2013-01-16 05:22:00,
2013-01-15 21:27:00,43.0,31.3,30.37,ESE,122,2.0,4.0,63,0.00,,,0.00,meteohub,2013-01-16 05:27:00,
2013-01-15 21:32:00,43.2,31.1,30.37,ESE,122,3.0,3.0,62,0.00,,,0.00,meteohub,2013-01-16 05:32:00,
2013-01-15 21:37:00,43.3,31.3,30.37,ESE,122,2.0,3.0,62,0.00,,,0.00,meteohub,2013-01-16 05:37:00,
2013-01-15 21:42:00,43.2,31.1,30.37,ESE,122,3.0,3.0,62,0.00,,,0.00,meteohub,2013-01-16 05:42:00,
2013-01-15 21:47:00,42.6,30.6,30.37,ESE,122,2.0,3.0,62,0.00,,,0.00,meteohub,2013-01-16 05:47:00,
2013-01-15 21:52:00,42.3,30.6,30.37,ESE,122,3.0,3.0,63,0.00,,,0.00,meteohub,2013-01-16 05:52:00,
2013-01-15 21:57:00,42.1,30.7,30.38,ESE,122,1.0,4.0,64,0.00,,,0.00,meteohub,2013-01-16 05:57:00,
2013-01-15 22:02:00,41.5,30.2,30.38,ESE,122,3.0,4.0,64,0.00,,,0.00,meteohub,2013-01-16 06:02:00,
2013-01-15 22:07:00,41.5,30.2,30.38,ESE,122,0.0,4.0,64,0.00,,,0.00,meteohub,2013-01-16 06:07:00,
2013-01-15 22:12:00,41.4,30.6,30.38,ESE,122,3.0,3.0,65,0.00,,,0.00,meteohub,2013-01-16 06:12:00,
2013-01-15 22:17:00,41.5,30.2,30.38,ESE,122,3.0,3.0,64,0.00,,,0.00,meteohub,2013-01-16 06:17:00,
2013-01-15 22:22:00,42.1,30.4,30.38,ESE,122,3.0,4.0,63,0.00,,,0.00,meteohub,2013-01-16 06:22:00,
2013-01-15 22:27:00,42.8,30.7,30.37,ESE,111,5.0,5.0,62,0.00,,,0.00,meteohub,2013-01-16 06:27:00,
2013-01-15 22:32:00,43.0,30.4,30.37,ESE,105,5.0,7.0,61,0.00,,,0.00,meteohub,2013-01-16 06:32:00,
2013-01-15 22:42:00,41.9,30.6,30.37,ESE,102,5.0,7.0,64,0.00,,,0.00,meteohub,2013-01-16 06:42:00,
2013-01-15 22:47:00,41.0,30.9,30.37,ESE,102,4.0,7.0,67,0.00,,,0.00,meteohub,2013-01-16 06:47:00,
2013-01-15 22:52:00,40.6,30.9,30.37,ESE,102,4.0,5.0,68,0.00,,,0.00,meteohub,2013-01-16 06:52:00,
2013-01-15 22:57:00,40.1,30.7,30.38,ESE,102,3.0,5.0,69,0.00,,,0.00,meteohub,2013-01-16 06:57:00,
2013-01-15 23:02:00,39.9,30.9,30.38,ESE,102,3.0,4.0,70,0.00,,,0.00,meteohub,2013-01-16 07:02:00,
2013-01-15 23:07:00,39.6,30.6,30.38,ESE,102,3.0,4.0,70,0.00,,,0.00,meteohub,2013-01-16 07:07:00,
2013-01-15 23:12:00,38.8,30.2,30.38,ESE,102,3.0,4.0,71,0.00,,,0.00,meteohub,2013-01-16 07:12:00,
2013-01-15 23:17:00,38.7,30.4,30.38,ESE,102,2.0,4.0,72,0.00,,,0.00,meteohub,2013-01-16 07:17:00,
2013-01-15 23:22:00,38.7,30.4,30.38,ESE,102,3.0,4.0,72,0.00,,,0.00,meteohub,2013-01-16 07:22:00,
2013-01-15 23:27:00,38.5,30.6,30.38,ESE,102,0.0,4.0,73,0.00,,,0.00,meteohub,2013-01-16 07:27:00,
2013-01-15 23:32:00,38.7,30.7,30.38,ESE,102,3.0,4.0,73,0.00,,,0.00,meteohub,2013-01-16 07:32:00,
2013-01-15 23:37:00,39.4,31.1,30.38,ESE,102,4.0,4.0,72,0.00,,,0.00,meteohub,2013-01-16 07:37:00,
2013-01-15 23:42:00,39.9,31.3,30.38,ESE,102,3.0,5.0,71,0.00,,,0.00,meteohub,2013-01-16 07:42:00,
2013-01-15 23:47:00,39.7,30.4,30.38,ESE,102,0.0,5.0,69,0.00,,,0.00,meteohub,2013-01-16 07:47:00,
2013-01-15 23:52:00,39.0,30.4,30.38,ESE,102,0.0,5.0,71,0.00,,,0.00,meteohub,2013-01-16 07:52:00,
2013-01-15 23:57:00,38.7,30.0,30.38,ESE,102,0.0,4.0,71,0.00,,,0.00,meteohub,2013-01-16 07:57:00,